Independence — WDD6659 — position and weather

sailwx.info

Track history (hours):
 
Tides and Currents Weather Stations Pressure Air Temp Water Temp Dewpoint Dewpoint Depression Visibility Wind Speed Wind Dir Waves Ship Positions

Independence

Owner: Sortwell, Inc. DBA AmNav Maritime Services, Oakland, CA. More information available from US FCC via Universal Licensing System and Coast Guard Vessel Documentation Center.

Last reported at 2015-Mar-29 23:33 UTC. Time now 2015-Mar-29 23:50 UTC.
Position N 33°44' W 118°17'.

Length 24 m; draft 4.9 m.

Type: Tug. MMSI: 367175860.

Date/timePositionNaut miles runAvg speedWind from/ knotsBaromVisibWave heightAir tempDewpointWater temp
2015-Mar-29 23:33N 33°44' W 118°17'0 0.0
2015-Mar-29 22:24N 33°44' W 118°17'0 0.0
2015-Mar-29 21:31N 33°44' W 118°17'0 0.0
2015-Mar-29 20:33N 33°44' W 118°17'0 0.0
2015-Mar-29 19:19N 33°44' W 118°17'1 0.2
2015-Mar-29 14:33N 33°43' W 118°16'3 3.0
2015-Mar-29 13:33N 33°45' W 118°13'0 0.2
2015-Mar-29 12:33N 33°45' W 118°13'2 1.5
2015-Mar-29 11:22N 33°43' W 118°13'3 3.7
2015-Mar-29 10:33N 33°44' W 118°17'0 0.0
2015-Mar-29 09:32N 33°44' W 118°17'0 0.0
2015-Mar-29 08:33N 33°44' W 118°17'0 0.0
2015-Mar-29 07:33N 33°44' W 118°17'0 0.0
2015-Mar-29 06:31N 33°44' W 118°17'1 0.6
2015-Mar-29 05:33N 33°43' W 118°16'1 0.6
2015-Mar-29 04:33N 33°44' W 118°17'0 0.0
2015-Mar-29 03:33N 33°44' W 118°17'0 0.0
2015-Mar-29 02:33N 33°44' W 118°17'0 0.0
2015-Mar-29 01:33N 33°44' W 118°17'0 0.0
2015-Mar-29 00:33N 33°44' W 118°17'0 0.0
2015-Mar-28 23:33N 33°44' W 118°17'0 0.2
2015-Mar-28 22:33N 33°44' W 118°16'0 0.2
2015-Mar-28 21:33N 33°44' W 118°17'0 0.0
2015-Mar-28 20:33N 33°44' W 118°17'0 0.0
2015-Mar-28 19:33N 33°44' W 118°17'0 0.1
2015-Mar-28 16:27N 33°44' W 118°16'1 1.2
2015-Mar-28 15:33N 33°45' W 118°16'5 4.5
2015-Mar-28 14:32N 33°44' W 118°11'1 1.1
2015-Mar-28 13:25N 33°44' W 118°09'2 2.5
2015-Mar-28 12:27N 33°44' W 118°12'1 1.4
2015-Mar-28 11:33N 33°45' W 118°13'0 0.0
2015-Mar-28 10:33N 33°45' W 118°13'0 0.0
2015-Mar-28 09:33N 33°45' W 118°13'0 0.0
2015-Mar-28 08:33N 33°45' W 118°13'0 0.0
2015-Mar-28 07:33N 33°45' W 118°13'0 0.0
2015-Mar-28 06:33N 33°45' W 118°13'0 0.0
2015-Mar-28 05:33N 33°45' W 118°13'0 0.0
2015-Mar-28 04:33N 33°45' W 118°13'0 0.0
2015-Mar-28 03:33N 33°45' W 118°13'2 1.9
2015-Mar-28 02:33N 33°44' W 118°15'2 1.9
2015-Mar-28 01:33N 33°45' W 118°13'0 0.0
2015-Mar-28 00:34N 33°45' W 118°13'0 0.0
2015-Mar-27 23:33N 33°45' W 118°13'1 0.9
2015-Mar-27 22:33N 33°44' W 118°13'2 2.1
2015-Mar-27 21:33N 33°46' W 118°13'1 1.4
2015-Mar-27 20:32N 33°45' W 118°13'0 0.0
2015-Mar-27 19:33N 33°45' W 118°13'2 2.1
2015-Mar-27 18:30N 33°43' W 118°14'2 1.9
2015-Mar-27 17:23N 33°44' W 118°17'0 0.0
2015-Mar-27 16:05N 33°44' W 118°17'0 0.0
2015-Mar-27 15:33N 33°44' W 118°17'0 0.0
2015-Mar-27 14:28N 33°44' W 118°17'0 0.0
2015-Mar-27 13:22N 33°44' W 118°17'0 0.0
2015-Mar-27 12:18N 33°44' W 118°17'0 0.0
2015-Mar-27 11:32N 33°44' W 118°17'0 0.0
2015-Mar-27 10:33N 33°44' W 118°17'0 0.0
2015-Mar-27 09:33N 33°44' W 118°17'0 0.0
2015-Mar-27 08:32N 33°44' W 118°17'0 0.0
2015-Mar-27 06:05N 33°44' W 118°17'0 0.0
2015-Mar-27 04:25N 33°44' W 118°17'0 0.0
2015-Mar-27 03:33N 33°44' W 118°17'0 0.0
2015-Mar-27 02:31N 33°44' W 118°17'1 0.8
2015-Mar-27 01:33N 33°45' W 118°17'0 0.5
2015-Mar-27 00:30N 33°44' W 118°17'2 1.7
2015-Mar-26 23:33N 33°46' W 118°16'2 0.8
2015-Mar-26 21:08N 33°44' W 118°16'0 0.4
2015-Mar-26 20:33N 33°44' W 118°17'0 0.2
2015-Mar-26 19:24N 33°44' W 118°16'0 0.4
2015-Mar-26 18:30N 33°44' W 118°17'0 0.0
2015-Mar-26 17:31N 33°44' W 118°17'0 0.0
2015-Mar-26 16:33N 33°44' W 118°17'0 0.0
2015-Mar-26 15:33N 33°44' W 118°17'0 0.0
2015-Mar-26 14:33N 33°44' W 118°17'2 2.3
2015-Mar-26 13:33N 33°43' W 118°14'3 3.3
2015-Mar-26 12:33N 33°46' W 118°13'3 2.8
2015-Mar-26 11:28N 33°44' W 118°12'4 4.2
2015-Mar-26 10:32N 33°44' W 118°17'0 0.0
2015-Mar-26 09:33N 33°44' W 118°17'0 0.0
2015-Mar-26 08:33N 33°44' W 118°17'0 0.0
2015-Mar-26 06:20N 33°44' W 118°17'0 0.0
2015-Mar-26 02:33N 33°44' W 118°17'0 0.0
2015-Mar-26 01:33N 33°44' W 118°17'0 0.0
2015-Mar-26 00:32N 33°44' W 118°17'1 1.4
2015-Mar-25 23:33N 33°43' W 118°15'4 3.9
2015-Mar-25 22:32N 33°46' W 118°13'0 0.5
2015-Mar-25 21:33N 33°46' W 118°13'3 2.8
2015-Mar-25 20:33N 33°43' W 118°14'2 2.4
2015-Mar-25 19:33N 33°44' W 118°17'0 0.0
2015-Mar-25 18:07N 33°44' W 118°17'0 0.0
2015-Mar-25 16:16N 33°44' W 118°17'0 0.0
2015-Mar-25 15:14N 33°44' W 118°17'4 6.5
2015-Mar-25 14:33N 33°44' W 118°11'3 3.3
2015-Mar-25 13:33N 33°46' W 118°13'3 3.0
2015-Mar-25 12:25N 33°43' W 118°15'2 1.7
2015-Mar-25 11:21N 33°44' W 118°17'1 1.6
2015-Mar-25 10:33N 33°44' W 118°15'1 0.3
2015-Mar-25 06:24N 33°44' W 118°17'0 0.0
2015-Mar-25 05:12N 33°44' W 118°17'0 0.0
2015-Mar-25 04:32N 33°44' W 118°17'0 0.0
2015-Mar-25 01:09N 33°44' W 118°17'0 0.0
2015-Mar-25 00:19N 33°44' W 118°17'0 0.0
2015-Mar-24 17:17N 33°44' W 118°17'0 0.0
2015-Mar-24 16:32N 33°44' W 118°17'0 0.0
2015-Mar-24 15:10N 33°44' W 118°17'3 1.3
2015-Mar-24 12:33N 33°46' W 118°14'3 2.8
2015-Mar-24 11:20N 33°43' W 118°11'4 1.4
2015-Mar-24 08:08N 33°44' W 118°16'1 0.7
2015-Mar-24 06:32N 33°45' W 118°16'0 0.0
2015-Mar-24 05:28N 33°45' W 118°16'3 0.1
2015-Mar-23 11:28N 33°43' W 118°15'2 0.2
2015-Mar-23 00:25N 33°44' W 118°17'4 0.3
2015-Mar-22 13:33N 33°45' W 118°12'2 1.6
2015-Mar-22 12:34N 33°46' W 118°13'1 0.8
2015-Mar-22 11:33N 33°45' W 118°13'2 0.2
2015-Mar-22 01:33N 33°44' W 118°15'3 2.5
2015-Mar-22 00:31N 33°42' W 118°14'3 0.2
2015-Mar-21 10:08N 33°44' W 118°17'0 0.0
2015-Mar-21 01:04N 33°44' W 118°17'3 0.3
2015-Mar-20 15:33N 33°45' W 118°13'2 1.6
2015-Mar-20 14:32N 33°44' W 118°14'2 0.2
2015-Mar-20 00:28N 33°44' W 118°17'  
Track history (hours):
 
Tides and Currents Weather Stations Pressure Air Temp Water Temp Dewpoint Dewpoint Depression Visibility Wind Speed Wind Dir Waves Ship Positions

Independence

Owner: Sortwell, Inc. DBA AmNav Maritime Services, Oakland, CA. More information available from US FCC via Universal Licensing System and Coast Guard Vessel Documentation Center.

Last reported at 2015-Mar-29 23:33 UTC. Time now 2015-Mar-29 23:50 UTC.
Position N 33°44' W 118°17'.

Length 24 m; draft 4.9 m.

Type: Tug. MMSI: 367175860.

Date/timePositionNaut miles runAvg speedWind from/ knotsBaromVisibWave heightAir tempDewpointWater temp
2015-Mar-29 23:33N 33°44' W 118°17'0 0.0
2015-Mar-29 22:24N 33°44' W 118°17'0 0.0
2015-Mar-29 21:31N 33°44' W 118°17'0 0.0
2015-Mar-29 20:33N 33°44' W 118°17'0 0.0
2015-Mar-29 19:19N 33°44' W 118°17'1 0.2
2015-Mar-29 14:33N 33°43' W 118°16'3 3.0
2015-Mar-29 13:33N 33°45' W 118°13'0 0.2
2015-Mar-29 12:33N 33°45' W 118°13'2 1.5
2015-Mar-29 11:22N 33°43' W 118°13'3 3.7
2015-Mar-29 10:33N 33°44' W 118°17'0 0.0
2015-Mar-29 09:32N 33°44' W 118°17'0 0.0
2015-Mar-29 08:33N 33°44' W 118°17'0 0.0
2015-Mar-29 07:33N 33°44' W 118°17'0 0.0
2015-Mar-29 06:31N 33°44' W 118°17'1 0.6
2015-Mar-29 05:33N 33°43' W 118°16'1 0.6
2015-Mar-29 04:33N 33°44' W 118°17'0 0.0
2015-Mar-29 03:33N 33°44' W 118°17'0 0.0
2015-Mar-29 02:33N 33°44' W 118°17'0 0.0
2015-Mar-29 01:33N 33°44' W 118°17'0 0.0
2015-Mar-29 00:33N 33°44' W 118°17'0 0.0
2015-Mar-28 23:33N 33°44' W 118°17'0 0.2
2015-Mar-28 22:33N 33°44' W 118°16'0 0.2
2015-Mar-28 21:33N 33°44' W 118°17'0 0.0
2015-Mar-28 20:33N 33°44' W 118°17'0 0.0
2015-Mar-28 19:33N 33°44' W 118°17'0 0.1
2015-Mar-28 16:27N 33°44' W 118°16'1 1.2
2015-Mar-28 15:33N 33°45' W 118°16'5 4.5
2015-Mar-28 14:32N 33°44' W 118°11'1 1.1
2015-Mar-28 13:25N 33°44' W 118°09'2 2.5
2015-Mar-28 12:27N 33°44' W 118°12'1 1.4
2015-Mar-28 11:33N 33°45' W 118°13'0 0.0
2015-Mar-28 10:33N 33°45' W 118°13'0 0.0
2015-Mar-28 09:33N 33°45' W 118°13'0 0.0
2015-Mar-28 08:33N 33°45' W 118°13'0 0.0
2015-Mar-28 07:33N 33°45' W 118°13'0 0.0
2015-Mar-28 06:33N 33°45' W 118°13'0 0.0
2015-Mar-28 05:33N 33°45' W 118°13'0 0.0
2015-Mar-28 04:33N 33°45' W 118°13'0 0.0
2015-Mar-28 03:33N 33°45' W 118°13'2 1.9
2015-Mar-28 02:33N 33°44' W 118°15'2 1.9
2015-Mar-28 01:33N 33°45' W 118°13'0 0.0
2015-Mar-28 00:34N 33°45' W 118°13'0 0.0
2015-Mar-27 23:33N 33°45' W 118°13'1 0.9
2015-Mar-27 22:33N 33°44' W 118°13'2 2.1
2015-Mar-27 21:33N 33°46' W 118°13'1 1.4
2015-Mar-27 20:32N 33°45' W 118°13'0 0.0
2015-Mar-27 19:33N 33°45' W 118°13'2 2.1
2015-Mar-27 18:30N 33°43' W 118°14'2 1.9
2015-Mar-27 17:23N 33°44' W 118°17'0 0.0
2015-Mar-27 16:05N 33°44' W 118°17'0 0.0
2015-Mar-27 15:33N 33°44' W 118°17'0 0.0
2015-Mar-27 14:28N 33°44' W 118°17'0 0.0
2015-Mar-27 13:22N 33°44' W 118°17'0 0.0
2015-Mar-27 12:18N 33°44' W 118°17'0 0.0
2015-Mar-27 11:32N 33°44' W 118°17'0 0.0
2015-Mar-27 10:33N 33°44' W 118°17'0 0.0
2015-Mar-27 09:33N 33°44' W 118°17'0 0.0
2015-Mar-27 08:32N 33°44' W 118°17'0 0.0
2015-Mar-27 06:05N 33°44' W 118°17'0 0.0
2015-Mar-27 04:25N 33°44' W 118°17'0 0.0
2015-Mar-27 03:33N 33°44' W 118°17'0 0.0
2015-Mar-27 02:31N 33°44' W 118°17'1 0.8
2015-Mar-27 01:33N 33°45' W 118°17'0 0.5
2015-Mar-27 00:30N 33°44' W 118°17'2 1.7
2015-Mar-26 23:33N 33°46' W 118°16'2 0.8
2015-Mar-26 21:08N 33°44' W 118°16'0 0.4
2015-Mar-26 20:33N 33°44' W 118°17'0 0.2
2015-Mar-26 19:24N 33°44' W 118°16'0 0.4
2015-Mar-26 18:30N 33°44' W 118°17'0 0.0
2015-Mar-26 17:31N 33°44' W 118°17'0 0.0
2015-Mar-26 16:33N 33°44' W 118°17'0 0.0
2015-Mar-26 15:33N 33°44' W 118°17'0 0.0
2015-Mar-26 14:33N 33°44' W 118°17'2 2.3
2015-Mar-26 13:33N 33°43' W 118°14'3 3.3
2015-Mar-26 12:33N 33°46' W 118°13'3 2.8
2015-Mar-26 11:28N 33°44' W 118°12'4 4.2
2015-Mar-26 10:32N 33°44' W 118°17'0 0.0
2015-Mar-26 09:33N 33°44' W 118°17'0 0.0
2015-Mar-26 08:33N 33°44' W 118°17'0 0.0
2015-Mar-26 06:20N 33°44' W 118°17'0 0.0
2015-Mar-26 02:33N 33°44' W 118°17'0 0.0
2015-Mar-26 01:33N 33°44' W 118°17'0 0.0
2015-Mar-26 00:32N 33°44' W 118°17'1 1.4
2015-Mar-25 23:33N 33°43' W 118°15'4 3.9
2015-Mar-25 22:32N 33°46' W 118°13'0 0.5
2015-Mar-25 21:33N 33°46' W 118°13'3 2.8
2015-Mar-25 20:33N 33°43' W 118°14'2 2.4
2015-Mar-25 19:33N 33°44' W 118°17'0 0.0
2015-Mar-25 18:07N 33°44' W 118°17'0 0.0
2015-Mar-25 16:16N 33°44' W 118°17'0 0.0
2015-Mar-25 15:14N 33°44' W 118°17'4 6.5
2015-Mar-25 14:33N 33°44' W 118°11'3 3.3
2015-Mar-25 13:33N 33°46' W 118°13'3 3.0
2015-Mar-25 12:25N 33°43' W 118°15'2 1.7
2015-Mar-25 11:21N 33°44' W 118°17'1 1.6
2015-Mar-25 10:33N 33°44' W 118°15'1 0.3
2015-Mar-25 06:24N 33°44' W 118°17'0 0.0
2015-Mar-25 05:12N 33°44' W 118°17'0 0.0
2015-Mar-25 04:32N 33°44' W 118°17'0 0.0
2015-Mar-25 01:09N 33°44' W 118°17'0 0.0
2015-Mar-25 00:19N 33°44' W 118°17'0 0.0
2015-Mar-24 17:17N 33°44' W 118°17'0 0.0
2015-Mar-24 16:32N 33°44' W 118°17'0 0.0
2015-Mar-24 15:10N 33°44' W 118°17'3 1.3
2015-Mar-24 12:33N 33°46' W 118°14'3 2.8
2015-Mar-24 11:20N 33°43' W 118°11'4 1.4
2015-Mar-24 08:08N 33°44' W 118°16'1 0.7
2015-Mar-24 06:32N 33°45' W 118°16'0 0.0
2015-Mar-24 05:28N 33°45' W 118°16'3 0.1
2015-Mar-23 11:28N 33°43' W 118°15'2 0.2
2015-Mar-23 00:25N 33°44' W 118°17'4 0.3
2015-Mar-22 13:33N 33°45' W 118°12'2 1.6
2015-Mar-22 12:34N 33°46' W 118°13'1 0.8
2015-Mar-22 11:33N 33°45' W 118°13'2 0.2
2015-Mar-22 01:33N 33°44' W 118°15'3 2.5
2015-Mar-22 00:31N 33°42' W 118°14'3 0.2
2015-Mar-21 10:08N 33°44' W 118°17'0 0.0
2015-Mar-21 01:04N 33°44' W 118°17'3 0.3
2015-Mar-20 15:33N 33°45' W 118°13'2 1.6
2015-Mar-20 14:32N 33°44' W 118°14'2 0.2
2015-Mar-20 00:28N 33°44' W 118°17'  

Dump ship's entire track history